createdAt,value
2023-05-15T00:01:36.489Z,0.32
2023-05-15T00:04:02.951Z,0.30
2023-05-15T00:06:29.394Z,0.32
2023-05-15T00:08:55.726Z,0.30
2023-05-15T00:11:23.562Z,0.50
2023-05-15T00:13:50.280Z,0.30
2023-05-15T00:16:16.741Z,0.30
2023-05-15T00:18:43.282Z,0.40
2023-05-15T00:21:09.780Z,0.50
2023-05-15T00:23:36.410Z,0.50
2023-05-15T00:26:02.908Z,0.40
2023-05-15T00:28:29.197Z,0.50
2023-05-15T00:30:55.752Z,0.35
2023-05-15T00:33:22.130Z,0.40
2023-05-15T00:35:48.464Z,0.40
2023-05-15T00:38:14.838Z,1.00
2023-05-15T00:40:41.558Z,1.30
2023-05-15T00:43:08.556Z,1.13
2023-05-15T00:45:35.452Z,0.60
2023-05-15T00:48:01.841Z,0.52
2023-05-15T00:50:28.730Z,0.40
2023-05-15T00:52:55.436Z,0.60
2023-05-15T00:55:21.811Z,0.40
2023-05-15T00:57:48.908Z,0.57
2023-05-15T01:00:18.384Z,0.60
2023-05-15T01:02:44.789Z,0.63
2023-05-15T01:05:11.945Z,0.50
2023-05-15T01:07:43.823Z,0.30
2023-05-15T01:10:10.740Z,0.30
2023-05-15T01:12:38.284Z,0.20
2023-05-15T01:15:04.939Z,0.20
2023-05-15T01:17:31.450Z,0.30
2023-05-15T01:19:59.000Z,0.47
2023-05-15T01:22:31.374Z,0.80
2023-05-15T01:25:03.844Z,1.30
2023-05-15T01:27:38.561Z,0.70
2023-05-15T01:30:08.234Z,1.00
2023-05-15T01:32:34.823Z,1.05
2023-05-15T01:35:15.047Z,1.10
2023-05-15T01:37:44.057Z,0.90
2023-05-15T01:40:11.737Z,0.98
2023-05-15T01:42:39.787Z,1.10
2023-05-15T01:45:09.615Z,1.23
2023-05-15T01:47:40.613Z,1.20
2023-05-15T01:50:07.236Z,0.93
2023-05-15T01:52:34.610Z,1.00
2023-05-15T01:55:05.821Z,0.75
2023-05-15T01:57:33.424Z,0.77
2023-05-15T02:00:00.923Z,0.82
2023-05-15T02:02:28.080Z,0.77
2023-05-15T02:04:54.959Z,0.80
2023-05-15T02:07:21.482Z,1.00
2023-05-15T02:09:48.219Z,1.08
2023-05-15T02:12:15.160Z,1.00
2023-05-15T02:14:42.873Z,1.08
2023-05-15T02:17:09.325Z,0.90
2023-05-15T02:19:35.896Z,0.77
2023-05-15T02:22:02.224Z,0.80
2023-05-15T02:24:28.497Z,0.70
2023-05-15T02:26:55.271Z,1.05
2023-05-15T02:29:24.598Z,0.90
2023-05-15T02:31:56.819Z,0.90
2023-05-15T02:34:32.160Z,0.80
2023-05-15T02:37:00.622Z,0.88
2023-05-15T02:39:29.075Z,0.65
2023-05-15T02:41:56.671Z,0.73
2023-05-15T02:44:23.182Z,0.70
2023-05-15T02:46:50.212Z,1.00
2023-05-15T02:49:16.631Z,1.10
2023-05-15T02:51:42.964Z,0.90
2023-05-15T02:54:09.682Z,0.82
2023-05-15T02:56:36.075Z,0.70
2023-05-15T02:59:02.650Z,0.80
2023-05-15T03:01:29.030Z,1.00
2023-05-15T03:03:55.381Z,0.80
2023-05-15T03:06:22.072Z,0.90
2023-05-15T03:08:48.395Z,1.13
2023-05-15T03:11:14.900Z,0.90
2023-05-15T03:13:41.458Z,0.70
2023-05-15T03:16:07.853Z,0.90
2023-05-15T03:18:34.239Z,1.02
2023-05-15T03:21:00.611Z,1.00
2023-05-15T03:23:27.096Z,0.90
2023-05-15T03:25:53.478Z,0.80
2023-05-15T03:28:19.823Z,0.60
2023-05-15T03:30:46.200Z,0.77
2023-05-15T03:33:12.584Z,0.75
2023-05-15T03:35:39.302Z,0.47
2023-05-15T03:38:05.610Z,0.50
2023-05-15T03:40:31.988Z,0.43
2023-05-15T03:42:58.425Z,0.68
2023-05-15T03:45:24.977Z,0.60
2023-05-15T03:47:51.812Z,0.45
2023-05-15T03:50:18.136Z,0.50
2023-05-15T03:52:44.541Z,0.60
2023-05-15T03:55:11.042Z,0.90
2023-05-15T03:57:37.454Z,0.80
2023-05-15T04:00:09.804Z,1.13
2023-05-15T04:02:36.765Z,1.02
2023-05-15T04:05:04.017Z,1.10
2023-05-15T04:07:30.378Z,1.20
2023-05-15T04:09:56.778Z,1.17
2023-05-15T04:12:23.130Z,1.20
2023-05-15T04:14:49.544Z,1.80
2023-05-15T04:17:15.837Z,1.58
2023-05-15T04:19:43.118Z,1.50
2023-05-15T04:22:09.517Z,1.65
2023-05-15T04:24:35.840Z,1.80
2023-05-15T04:27:02.319Z,1.77
2023-05-15T04:29:28.625Z,2.53
2023-05-15T04:31:54.933Z,4.90
2023-05-15T04:34:21.436Z,5.97
2023-05-15T04:36:48.392Z,6.32
2023-05-15T04:39:14.974Z,7.60
2023-05-15T04:41:41.325Z,8.13
2023-05-15T04:44:08.562Z,10.02
2023-05-15T04:46:37.305Z,8.70
2023-05-15T04:49:03.815Z,8.68
2023-05-15T04:51:30.145Z,9.63
2023-05-15T04:53:56.552Z,9.75
2023-05-15T04:56:22.865Z,8.90
2023-05-15T04:58:49.163Z,8.50
2023-05-15T05:01:15.727Z,12.27
2023-05-15T05:03:42.171Z,12.05
2023-05-15T05:06:08.494Z,11.20
2023-05-15T05:08:34.867Z,11.25
2023-05-15T05:11:01.274Z,11.32
2023-05-15T05:13:27.716Z,10.45
2023-05-15T05:15:54.087Z,11.63
2023-05-15T05:18:20.501Z,9.85
2023-05-15T05:20:46.942Z,13.68
2023-05-15T05:23:15.032Z,10.88
2023-05-15T05:25:41.394Z,12.07
2023-05-15T05:28:07.771Z,10.02
2023-05-15T05:30:34.143Z,9.00
2023-05-15T05:33:00.493Z,9.35
2023-05-15T05:35:28.336Z,13.10
2023-05-15T05:37:54.711Z,13.63
2023-05-15T05:40:20.997Z,11.65
2023-05-15T05:42:47.444Z,12.70
2023-05-15T05:45:13.787Z,15.45
2023-05-15T05:47:40.176Z,14.20
2023-05-15T05:50:07.160Z,14.23
2023-05-15T05:52:33.485Z,13.40
2023-05-15T05:54:59.926Z,16.45
2023-05-15T05:57:26.422Z,15.98
2023-05-15T05:59:52.838Z,15.60
2023-05-15T06:02:19.253Z,13.93
2023-05-15T06:04:46.300Z,10.43
2023-05-15T06:07:13.080Z,12.50
2023-05-15T06:09:39.362Z,14.82
2023-05-15T06:12:08.007Z,12.13
2023-05-15T06:14:34.516Z,10.52
2023-05-15T06:17:01.336Z,9.25
2023-05-15T06:19:27.886Z,11.73
2023-05-15T06:21:54.496Z,12.00
2023-05-15T06:24:20.797Z,12.63
2023-05-15T06:26:47.301Z,11.25
2023-05-15T06:29:13.892Z,12.02
2023-05-15T06:31:40.437Z,12.40
2023-05-15T06:34:06.854Z,11.63
2023-05-15T06:36:33.290Z,11.48
2023-05-15T06:38:59.729Z,9.40
2023-05-15T06:41:26.126Z,8.70
2023-05-15T06:43:52.458Z,12.55
2023-05-15T06:46:19.249Z,13.02
2023-05-15T06:48:47.504Z,13.45
2023-05-15T06:51:13.993Z,16.08
2023-05-15T06:53:41.746Z,15.07
2023-05-15T06:56:08.107Z,17.92
2023-05-15T06:58:34.565Z,13.10
2023-05-15T07:01:03.903Z,12.18
2023-05-15T07:03:30.510Z,13.57
2023-05-15T07:05:57.296Z,14.35
2023-05-15T07:08:23.855Z,13.20
2023-05-15T07:10:51.413Z,14.35
2023-05-15T07:13:18.216Z,13.23
2023-05-15T07:15:44.699Z,11.80
2023-05-15T07:18:11.100Z,9.00
2023-05-15T07:20:38.084Z,11.35
2023-05-15T07:23:05.470Z,11.52
2023-05-15T07:25:31.892Z,9.65
2023-05-15T07:27:58.232Z,9.98
2023-05-15T07:30:25.359Z,9.60
2023-05-15T07:32:51.820Z,12.32
2023-05-15T07:35:18.429Z,10.88
2023-05-15T07:37:46.431Z,14.52
2023-05-15T07:40:13.220Z,13.20
2023-05-15T07:42:42.597Z,13.45
2023-05-15T07:45:09.470Z,16.27
2023-05-15T07:47:36.231Z,13.40
2023-05-15T07:50:02.763Z,14.18
2023-05-15T07:52:29.235Z,15.43
2023-05-15T07:54:55.615Z,14.90
2023-05-15T07:57:22.227Z,14.90
2023-05-15T07:59:48.717Z,14.38
2023-05-15T08:02:15.677Z,18.27
2023-05-15T08:04:42.323Z,15.70
2023-05-15T08:07:08.968Z,12.13
2023-05-15T08:09:35.360Z,10.23
2023-05-15T08:12:17.631Z,12.68
2023-05-15T08:14:44.005Z,13.38
2023-05-15T08:17:11.508Z,12.57
2023-05-15T08:19:37.899Z,18.35
2023-05-15T08:22:04.326Z,15.68
2023-05-15T08:24:30.705Z,13.60
2023-05-15T08:26:57.260Z,17.55
2023-05-15T08:29:23.619Z,16.17
2023-05-15T08:31:50.084Z,17.73
2023-05-15T08:34:16.499Z,14.40
2023-05-15T08:36:43.343Z,12.07
2023-05-15T08:39:09.938Z,11.38
2023-05-15T08:41:47.872Z,14.20
2023-05-15T08:44:14.270Z,14.55
2023-05-15T08:46:41.192Z,15.98
2023-05-15T08:49:22.747Z,14.82
2023-05-15T08:51:49.220Z,13.25
2023-05-15T08:54:15.636Z,14.55
2023-05-15T08:56:42.399Z,14.45
2023-05-15T08:59:08.917Z,18.00
2023-05-15T09:01:35.934Z,13.50
2023-05-15T09:04:02.384Z,13.98
2023-05-15T09:06:28.976Z,11.85
2023-05-15T09:08:56.399Z,11.02
2023-05-15T09:11:24.413Z,13.77
2023-05-15T09:13:50.771Z,11.70
2023-05-15T09:16:17.208Z,12.13
2023-05-15T09:18:43.965Z,9.43
2023-05-15T09:21:27.107Z,10.10
2023-05-15T09:23:54.932Z,12.77
2023-05-15T09:26:21.991Z,12.18
2023-05-15T09:28:48.736Z,14.38
2023-05-15T09:31:19.457Z,14.13
2023-05-15T09:33:46.254Z,11.93
2023-05-15T09:36:21.241Z,13.07
2023-05-15T09:38:49.381Z,13.32
2023-05-15T09:41:24.259Z,12.32
2023-05-15T09:43:50.837Z,11.77
2023-05-15T09:46:17.476Z,14.68
2023-05-15T09:48:44.065Z,15.70
2023-05-15T09:51:18.211Z,15.10
2023-05-15T09:53:54.225Z,14.93
2023-05-15T09:56:20.851Z,12.68
2023-05-15T09:58:54.550Z,14.10
2023-05-15T10:01:24.123Z,13.93
2023-05-15T10:03:57.634Z,13.20
2023-05-15T10:06:24.085Z,10.10
2023-05-15T10:08:54.335Z,13.13
2023-05-15T10:11:24.066Z,15.13
2023-05-15T10:13:50.487Z,14.20
2023-05-15T10:16:20.216Z,15.27
2023-05-15T10:18:47.549Z,15.00
2023-05-15T10:21:15.585Z,17.90
2023-05-15T10:23:42.743Z,16.95
2023-05-15T10:26:14.306Z,19.63
2023-05-15T10:28:42.848Z,18.33
2023-05-15T10:31:10.977Z,16.90
2023-05-15T10:33:37.665Z,16.92
2023-05-15T10:36:04.531Z,19.33
2023-05-15T10:38:31.729Z,16.67
2023-05-15T10:41:12.988Z,15.82
2023-05-15T10:43:43.717Z,18.23
2023-05-15T10:46:11.058Z,17.92
2023-05-15T10:48:37.853Z,17.15
2023-05-15T10:51:04.386Z,18.73
2023-05-15T10:53:31.803Z,16.80
2023-05-15T10:55:58.273Z,17.67
2023-05-15T10:58:24.882Z,16.20
2023-05-15T11:00:51.610Z,15.55
2023-05-15T11:03:48.037Z,11.82
2023-05-15T11:06:15.938Z,12.90
2023-05-15T11:08:43.111Z,18.38
2023-05-15T11:11:09.470Z,16.35
2023-05-15T11:13:55.302Z,16.90
2023-05-15T11:16:57.982Z,15.88
2023-05-15T11:19:25.214Z,13.65
2023-05-15T11:22:10.295Z,16.33
2023-05-15T11:24:57.914Z,17.73
2023-05-15T11:27:24.415Z,11.80
2023-05-15T11:30:03.955Z,15.38
2023-05-15T11:32:49.452Z,13.13
2023-05-15T11:35:21.974Z,12.27
2023-05-15T11:37:49.668Z,11.30
2023-05-15T11:40:24.206Z,11.65
2023-05-15T11:43:09.622Z,12.48
2023-05-15T11:45:37.112Z,10.93
2023-05-15T11:48:04.976Z,14.60
2023-05-15T11:50:32.995Z,17.02
2023-05-15T11:53:04.022Z,16.90
2023-05-15T11:55:31.336Z,13.60
2023-05-15T11:57:57.782Z,11.75
2023-05-15T12:00:24.460Z,9.85
2023-05-15T12:02:51.098Z,10.60
2023-05-15T12:05:17.611Z,10.70
2023-05-15T12:07:44.357Z,13.57
2023-05-15T12:10:11.533Z,10.23
2023-05-15T12:12:41.692Z,9.45
2023-05-15T12:15:11.608Z,7.88
2023-05-15T12:17:38.856Z,8.23
2023-05-15T12:20:09.742Z,9.52
2023-05-15T12:22:36.815Z,8.25
2023-05-15T12:25:03.458Z,8.98
2023-05-15T12:27:30.702Z,9.82
2023-05-15T12:29:57.084Z,9.75
2023-05-15T12:32:23.671Z,14.32
2023-05-15T12:34:50.246Z,12.05
2023-05-15T12:37:19.076Z,9.68
2023-05-15T12:40:00.445Z,7.60
2023-05-15T12:42:27.215Z,7.97
2023-05-15T12:44:55.084Z,12.60
2023-05-15T12:47:25.037Z,11.35
2023-05-15T12:49:55.353Z,10.48
2023-05-15T12:52:21.958Z,9.73
2023-05-15T12:54:48.348Z,11.30
2023-05-15T12:57:14.811Z,13.32
2023-05-15T12:59:41.304Z,10.55
2023-05-15T13:02:11.888Z,9.95
2023-05-15T13:04:38.584Z,7.60
2023-05-15T13:07:05.279Z,8.77
2023-05-15T13:09:33.264Z,10.00
2023-05-15T13:12:02.564Z,9.60
2023-05-15T13:14:32.042Z,11.38
2023-05-15T13:16:59.831Z,9.45
2023-05-15T13:19:26.379Z,8.30
2023-05-15T13:21:52.730Z,6.20
2023-05-15T13:24:19.347Z,9.43
2023-05-15T13:26:45.872Z,10.90
2023-05-15T13:29:12.258Z,8.90
2023-05-15T13:31:39.004Z,7.53
2023-05-15T13:34:05.509Z,7.63
2023-05-15T13:36:32.175Z,9.88
2023-05-15T13:38:58.609Z,8.68
2023-05-15T13:41:24.994Z,7.20
2023-05-15T13:43:51.562Z,9.68
2023-05-15T13:46:17.963Z,8.60
2023-05-15T13:48:44.530Z,10.48
2023-05-15T13:51:10.993Z,9.43
2023-05-15T13:53:37.302Z,10.45
2023-05-15T13:56:03.840Z,10.18
2023-05-15T13:58:30.149Z,7.60
2023-05-15T14:00:56.749Z,5.85
2023-05-15T14:03:23.267Z,8.80
2023-05-15T14:05:49.795Z,7.63
2023-05-15T14:08:16.502Z,6.70
2023-05-15T14:10:43.579Z,6.88
2023-05-15T14:13:10.286Z,7.47
2023-05-15T14:15:36.645Z,6.47
2023-05-15T14:18:03.163Z,8.45
2023-05-15T14:20:29.979Z,8.65
2023-05-15T14:22:56.382Z,6.38
2023-05-15T14:25:22.742Z,5.90
2023-05-15T14:27:49.136Z,7.05
2023-05-15T14:30:15.613Z,5.15
2023-05-15T14:32:42.042Z,6.95
2023-05-15T14:35:08.594Z,5.20
2023-05-15T14:37:36.049Z,6.85
2023-05-15T14:40:02.436Z,5.32
2023-05-15T14:42:28.828Z,6.28
2023-05-15T14:44:55.351Z,5.05
2023-05-15T14:47:21.742Z,6.07
2023-05-15T14:49:48.100Z,5.53
2023-05-15T14:52:14.497Z,5.10
2023-05-15T14:54:40.932Z,4.90
2023-05-15T14:57:07.713Z,4.10
2023-05-15T14:59:34.293Z,5.35
2023-05-15T15:02:00.769Z,4.95
2023-05-15T15:04:29.143Z,4.38
2023-05-15T15:06:57.059Z,4.53
2023-05-15T15:09:24.067Z,5.13
2023-05-15T15:11:50.454Z,5.10
2023-05-15T15:14:16.957Z,5.45
2023-05-15T15:16:44.185Z,4.70
2023-05-15T15:19:10.871Z,4.10
2023-05-15T15:21:37.334Z,4.18
2023-05-15T15:24:03.734Z,4.40
2023-05-15T15:26:30.028Z,4.88
2023-05-15T15:29:00.778Z,4.32
2023-05-15T15:31:28.191Z,6.47
2023-05-15T15:33:54.695Z,4.60
2023-05-15T15:36:21.096Z,3.45
2023-05-15T15:38:47.573Z,3.95
2023-05-15T15:41:14.479Z,3.95
2023-05-15T15:43:40.791Z,3.92
2023-05-15T15:46:07.256Z,3.45
2023-05-15T15:48:33.786Z,3.88
2023-05-15T15:51:00.212Z,3.80
2023-05-15T15:53:26.700Z,3.67
2023-05-15T15:55:53.034Z,3.30
2023-05-15T15:58:19.789Z,2.50
2023-05-15T16:00:46.491Z,2.20
2023-05-15T16:03:12.884Z,2.55
2023-05-15T16:05:39.241Z,2.10
2023-05-15T16:08:05.586Z,2.40
2023-05-15T16:10:32.135Z,3.30
2023-05-15T16:12:58.767Z,3.03
2023-05-15T16:15:25.291Z,3.20
2023-05-15T16:17:53.043Z,2.90
2023-05-15T16:20:20.001Z,3.03
2023-05-15T16:22:46.312Z,2.42
2023-05-15T16:25:13.063Z,2.33
2023-05-15T16:27:39.451Z,2.90
2023-05-15T16:30:06.088Z,2.42
2023-05-15T16:32:33.883Z,3.22
2023-05-15T16:35:00.556Z,3.20
2023-05-15T16:37:26.936Z,3.65
2023-05-15T16:39:53.338Z,3.80
2023-05-15T16:42:19.734Z,3.90
2023-05-15T16:44:46.026Z,3.40
2023-05-15T16:47:12.456Z,2.75
2023-05-15T16:49:38.736Z,3.20
2023-05-15T16:52:05.249Z,2.67
2023-05-15T16:54:31.747Z,3.35
2023-05-15T16:56:58.094Z,3.83
2023-05-15T16:59:24.410Z,4.07
2023-05-15T17:01:51.071Z,3.97
2023-05-15T17:04:17.442Z,3.20
2023-05-15T17:06:43.898Z,3.45
2023-05-15T17:09:10.298Z,2.67
2023-05-15T17:11:37.119Z,2.83
2023-05-15T17:14:03.465Z,3.08
2023-05-15T17:16:29.969Z,3.53
2023-05-15T17:18:56.552Z,4.15
2023-05-15T17:21:23.020Z,6.50
2023-05-15T17:23:52.002Z,4.30
2023-05-15T17:26:18.362Z,5.03
2023-05-15T17:28:44.678Z,5.47
2023-05-15T17:31:11.179Z,6.75
2023-05-15T17:33:37.525Z,6.47
2023-05-15T17:36:04.089Z,9.48
2023-05-15T17:38:30.562Z,8.40
2023-05-15T17:40:56.929Z,8.45
2023-05-15T17:43:23.304Z,8.80
2023-05-15T17:45:49.826Z,6.88
2023-05-15T17:48:16.189Z,7.00
2023-05-15T17:50:42.557Z,8.45
2023-05-15T17:53:08.957Z,6.63
2023-05-15T17:55:35.312Z,5.10
2023-05-15T17:58:01.746Z,4.80
2023-05-15T18:00:28.033Z,4.57
2023-05-15T18:02:54.535Z,6.13
2023-05-15T18:05:20.962Z,7.30
2023-05-15T18:07:48.174Z,6.45
2023-05-15T18:10:14.572Z,8.38
2023-05-15T18:12:41.095Z,7.40
2023-05-15T18:15:07.886Z,8.82
2023-05-15T18:17:34.249Z,8.93
2023-05-15T18:20:01.782Z,7.10
2023-05-15T18:22:28.172Z,6.43
2023-05-15T18:24:54.646Z,8.43
2023-05-15T18:27:20.938Z,8.55
2023-05-15T18:29:47.355Z,8.15
2023-05-15T18:32:13.786Z,8.43
2023-05-15T18:34:40.103Z,9.20
2023-05-15T18:37:06.527Z,7.85
2023-05-15T18:39:32.914Z,7.38
2023-05-15T18:42:00.253Z,6.88
2023-05-15T18:44:26.635Z,6.95
2023-05-15T18:46:53.182Z,6.63
2023-05-15T18:49:19.650Z,6.40
2023-05-15T18:51:46.262Z,5.07
2023-05-15T18:54:12.715Z,7.10
2023-05-15T18:56:40.548Z,6.45
2023-05-15T18:59:08.655Z,7.47
2023-05-15T19:01:35.083Z,5.93
2023-05-15T19:04:01.423Z,4.38
2023-05-15T19:06:27.776Z,4.47
2023-05-15T19:08:54.073Z,5.05
2023-05-15T19:11:21.288Z,5.18
2023-05-15T19:13:47.607Z,4.60
2023-05-15T19:16:14.000Z,3.97
2023-05-15T19:18:40.494Z,3.55
2023-05-15T19:21:07.055Z,4.03
2023-05-15T19:23:33.413Z,3.60
2023-05-15T19:26:00.010Z,3.95
2023-05-15T19:28:26.374Z,6.00
2023-05-15T19:30:52.727Z,5.38
2023-05-15T19:33:19.336Z,5.55
2023-05-15T19:35:45.792Z,4.85
2023-05-15T19:38:12.278Z,4.70
2023-05-15T19:40:38.584Z,4.63
2023-05-15T19:43:04.898Z,5.45
2023-05-15T19:45:31.181Z,4.18
2023-05-15T19:47:59.070Z,5.28
2023-05-15T19:50:25.830Z,4.68
2023-05-15T19:52:52.276Z,5.18
2023-05-15T19:55:18.643Z,5.13
2023-05-15T19:57:45.048Z,5.57
2023-05-15T20:00:12.584Z,5.13
2023-05-15T20:02:41.283Z,5.40
2023-05-15T20:05:08.131Z,4.38
2023-05-15T20:07:35.338Z,3.65
2023-05-15T20:10:01.767Z,4.35
2023-05-15T20:12:28.526Z,4.43
2023-05-15T20:14:54.899Z,4.40
2023-05-15T20:17:21.262Z,3.25
2023-05-15T20:19:49.574Z,2.63
2023-05-15T20:22:17.133Z,3.08
2023-05-15T20:24:44.317Z,2.40
2023-05-15T20:27:11.441Z,2.97
2023-05-15T20:29:38.549Z,2.45
2023-05-15T20:32:05.126Z,2.92
2023-05-15T20:34:32.882Z,3.60
2023-05-15T20:36:59.229Z,3.75
2023-05-15T20:39:25.599Z,5.03
2023-05-15T20:41:51.925Z,5.47
2023-05-15T20:44:18.226Z,6.40
2023-05-15T20:46:44.881Z,4.85
2023-05-15T20:49:11.879Z,4.78
2023-05-15T20:51:38.273Z,3.85
2023-05-15T20:54:04.780Z,3.65
2023-05-15T20:56:31.287Z,4.78
2023-05-15T20:58:59.791Z,5.28
2023-05-15T21:01:26.608Z,4.25
2023-05-15T21:03:53.066Z,4.53
2023-05-15T21:06:19.399Z,4.40
2023-05-15T21:08:45.774Z,4.57
2023-05-15T21:11:12.111Z,6.22
2023-05-15T21:13:38.410Z,5.90
2023-05-15T21:16:04.897Z,7.57
2023-05-15T21:18:31.411Z,5.25
2023-05-15T21:20:57.739Z,7.00
2023-05-15T21:23:24.182Z,10.52
2023-05-15T21:25:50.590Z,7.82
2023-05-15T21:28:16.961Z,13.02
2023-05-15T21:30:43.423Z,9.95
2023-05-15T21:33:10.126Z,9.82
2023-05-15T21:35:36.590Z,13.25
2023-05-15T21:38:03.211Z,13.02
2023-05-15T21:40:29.561Z,11.93
2023-05-15T21:42:56.012Z,10.98
2023-05-15T21:45:22.364Z,15.27
2023-05-15T21:47:48.807Z,10.55
2023-05-15T21:50:15.205Z,10.57
2023-05-15T21:52:41.877Z,9.23
2023-05-15T21:55:09.070Z,8.32
2023-05-15T21:57:35.565Z,10.93
2023-05-15T22:00:02.566Z,11.02
2023-05-15T22:02:29.152Z,8.88
2023-05-15T22:04:55.448Z,8.50
2023-05-15T22:07:21.724Z,8.95
2023-05-15T22:09:48.189Z,12.52
2023-05-15T22:12:14.531Z,10.15
2023-05-15T22:14:54.526Z,8.82
2023-05-15T22:17:26.413Z,9.63
2023-05-15T22:19:53.002Z,9.52
2023-05-15T22:22:20.891Z,10.07
2023-05-15T22:24:47.854Z,9.13
2023-05-15T22:27:16.496Z,8.02
2023-05-15T22:29:42.875Z,7.47
2023-05-15T22:32:09.258Z,7.22
2023-05-15T22:34:35.865Z,7.43
2023-05-15T22:37:02.220Z,6.70
2023-05-15T22:39:28.570Z,6.63
2023-05-15T22:41:54.991Z,6.45
2023-05-15T22:44:21.432Z,6.72
2023-05-15T22:46:48.034Z,7.07
2023-05-15T22:49:19.192Z,6.72
2023-05-15T22:51:45.743Z,9.43
2023-05-15T22:54:12.200Z,8.32
2023-05-15T22:56:38.643Z,8.85
2023-05-15T22:59:04.959Z,7.80
2023-05-15T23:01:32.278Z,6.22
2023-05-15T23:03:58.841Z,7.88
2023-05-15T23:06:25.387Z,6.43
2023-05-15T23:08:51.899Z,9.07
2023-05-15T23:11:18.211Z,8.73
2023-05-15T23:13:44.570Z,8.07
2023-05-15T23:16:11.019Z,7.68
2023-05-15T23:18:37.412Z,11.52
2023-05-15T23:21:04.855Z,7.85
2023-05-15T23:23:31.259Z,5.70
2023-05-15T23:25:57.656Z,7.05
2023-05-15T23:28:23.966Z,6.68
2023-05-15T23:30:53.800Z,5.38
2023-05-15T23:33:20.406Z,7.25
2023-05-15T23:35:46.833Z,5.57
2023-05-15T23:38:13.200Z,6.90
2023-05-15T23:40:39.620Z,8.40
2023-05-15T23:43:09.001Z,8.13
2023-05-15T23:45:35.383Z,7.30
2023-05-15T23:48:01.722Z,6.35
2023-05-15T23:50:28.487Z,6.25
2023-05-15T23:52:55.157Z,6.90
2023-05-15T23:55:21.443Z,5.32
2023-05-15T23:57:48.307Z,4.70
